createdAt,value
2019-03-11T00:01:23.807Z,100541.16
2019-03-11T00:03:51.555Z,100540.20
2019-03-11T00:06:18.885Z,100537.42
2019-03-11T00:08:46.549Z,100528.36
2019-03-11T00:11:14.210Z,100530.20
2019-03-11T00:13:42.140Z,100522.69
2019-03-11T00:16:09.694Z,100521.38
2019-03-11T00:18:37.183Z,100524.21
2019-03-11T00:21:04.825Z,100522.78
2019-03-11T00:23:32.646Z,100512.68
2019-03-11T00:26:00.397Z,100509.09
2019-03-11T00:28:28.340Z,100508.03
2019-03-11T00:30:55.918Z,100514.55
2019-03-11T00:33:24.511Z,100511.37
2019-03-11T00:35:51.984Z,100506.39
2019-03-11T00:38:20.249Z,100502.86
2019-03-11T00:40:47.921Z,100505.36
2019-03-11T00:43:15.625Z,100501.28
2019-03-11T00:45:43.353Z,100503.42
2019-03-11T00:48:11.063Z,100503.34
2019-03-11T00:50:38.807Z,100498.37
2019-03-11T00:53:06.359Z,100499.81
2019-03-11T00:55:34.091Z,100497.94
2019-03-11T00:58:02.101Z,100494.25
2019-03-11T01:00:32.919Z,100496.39
2019-03-11T01:03:00.670Z,100497.79
2019-03-11T01:05:28.549Z,100505.26
2019-03-11T01:07:56.399Z,100494.59
2019-03-11T01:10:24.227Z,100477.71
2019-03-11T01:12:51.481Z,100476.56
2019-03-11T01:15:19.166Z,100472.51
2019-03-11T01:17:47.340Z,100473.27
2019-03-11T01:20:14.886Z,100478.31
2019-03-11T01:22:42.324Z,100472.91
2019-03-11T01:25:10.278Z,100473.86
2019-03-11T01:27:38.112Z,100475.28
2019-03-11T01:30:06.086Z,100465.62
2019-03-11T01:32:34.367Z,100450.91
2019-03-11T01:35:02.228Z,100452.64
2019-03-11T01:37:29.577Z,100450.56
2019-03-11T01:39:57.056Z,100437.45
2019-03-11T01:42:24.496Z,100425.98
2019-03-11T01:44:52.129Z,100420.84
2019-03-11T01:47:19.951Z,100414.77
2019-03-11T01:49:47.580Z,100414.97
2019-03-11T01:52:15.167Z,100420.44
2019-03-11T01:54:43.427Z,100422.53
2019-03-11T01:57:10.967Z,100407.91
2019-03-11T01:59:38.374Z,100401.39
2019-03-11T02:02:06.701Z,100395.47
2019-03-11T02:04:34.257Z,100396.93
2019-03-11T02:07:02.075Z,100392.08
2019-03-11T02:09:29.776Z,100380.88
2019-03-11T02:11:57.566Z,100369.61
2019-03-11T02:14:25.454Z,100357.16
2019-03-11T02:16:53.106Z,100356.84
2019-03-11T02:19:20.369Z,100354.25
2019-03-11T02:21:48.348Z,100357.58
2019-03-11T02:24:16.332Z,100348.41
2019-03-11T02:26:44.135Z,100338.97
2019-03-11T02:29:11.998Z,100337.93
2019-03-11T02:31:39.781Z,100342.23
2019-03-11T02:34:06.930Z,100345.36
2019-03-11T02:36:34.762Z,100340.88
2019-03-11T02:39:02.880Z,100338.02
2019-03-11T02:41:30.604Z,100327.95
2019-03-11T02:43:58.431Z,100321.56
2019-03-11T02:46:26.442Z,100323.72
2019-03-11T02:48:53.854Z,100312.23
2019-03-11T02:51:21.292Z,100317.95
2019-03-11T02:53:49.159Z,100307.41
2019-03-11T02:56:17.167Z,100306.30
2019-03-11T02:58:44.901Z,100287.15
2019-03-11T03:01:30.346Z,100288.12
2019-03-11T03:04:02.083Z,100279.66
2019-03-11T03:06:29.650Z,100257.61
2019-03-11T03:08:57.265Z,100256.16
2019-03-11T03:11:25.443Z,100251.92
2019-03-11T03:13:52.765Z,100259.43
2019-03-11T03:16:20.615Z,100251.85
2019-03-11T03:18:47.801Z,100250.11
2019-03-11T03:21:15.401Z,100246.38
2019-03-11T03:23:43.373Z,100241.27
2019-03-11T03:26:11.234Z,100226.16
2019-03-11T03:28:38.771Z,100239.81
2019-03-11T03:31:06.362Z,100239.09
2019-03-11T03:33:34.602Z,100237.53
2019-03-11T03:36:02.552Z,100235.05
2019-03-11T03:38:31.385Z,100231.60
2019-03-11T03:40:59.191Z,100285.39
2019-03-11T03:43:27.048Z,100345.31
2019-03-11T03:45:54.439Z,100350.28
2019-03-11T03:48:22.327Z,100342.22
2019-03-11T03:50:49.700Z,100337.45
2019-03-11T03:53:17.822Z,100330.44
2019-03-11T03:55:45.693Z,100327.88
2019-03-11T03:58:13.405Z,100325.59
2019-03-11T04:00:40.935Z,100323.89
2019-03-11T04:03:08.816Z,100329.02
2019-03-11T04:05:36.091Z,100323.75
2019-03-11T04:08:03.845Z,100328.72
2019-03-11T04:10:33.164Z,100326.80
2019-03-11T04:13:01.106Z,100329.41
2019-03-11T04:15:28.525Z,100330.14
2019-03-11T04:17:56.048Z,100312.58
2019-03-11T04:20:24.747Z,100318.41
2019-03-11T04:22:52.255Z,100323.61
2019-03-11T04:25:20.023Z,100339.01
2019-03-11T04:27:47.677Z,100343.97
2019-03-11T04:30:18.255Z,100339.48
2019-03-11T04:32:46.129Z,100340.39
2019-03-11T04:35:14.022Z,100333.09
2019-03-11T04:37:41.713Z,100341.20
2019-03-11T04:40:10.902Z,100338.20
2019-03-11T04:42:38.464Z,100332.95
2019-03-11T04:45:07.549Z,100336.96
2019-03-11T04:47:35.332Z,100339.61
2019-03-11T04:50:03.556Z,100337.48
2019-03-11T04:52:31.176Z,100331.49
2019-03-11T04:54:59.014Z,100327.64
2019-03-11T04:57:27.216Z,100334.89
2019-03-11T04:59:54.804Z,100338.11
2019-03-11T05:02:22.578Z,100334.88
2019-03-11T05:04:50.763Z,100332.34
2019-03-11T05:07:18.239Z,100352.57
2019-03-11T05:09:46.226Z,100355.05
2019-03-11T05:12:13.903Z,100369.56
2019-03-11T05:14:41.618Z,100395.52
2019-03-11T05:17:09.459Z,100432.48
2019-03-11T05:19:37.259Z,100419.55
2019-03-11T05:22:05.284Z,100425.12
2019-03-11T05:24:32.878Z,100417.27
2019-03-11T05:27:00.570Z,100413.37
2019-03-11T05:29:27.915Z,100403.20
2019-03-11T05:31:55.293Z,100404.83
2019-03-11T05:34:22.899Z,100414.48
2019-03-11T05:36:50.225Z,100421.31
2019-03-11T05:39:18.069Z,100423.78
2019-03-11T05:41:46.373Z,100423.66
2019-03-11T05:44:14.040Z,100427.75
2019-03-11T05:46:41.457Z,100408.56
2019-03-11T05:49:08.795Z,100409.59
2019-03-11T05:51:36.664Z,100402.53
2019-03-11T05:54:04.024Z,100414.67
2019-03-11T05:56:31.865Z,100418.60
2019-03-11T05:58:59.921Z,100429.72
2019-03-11T06:01:27.163Z,100434.96
2019-03-11T06:03:55.290Z,100436.16
2019-03-11T06:06:23.711Z,100430.04
2019-03-11T06:08:51.841Z,100439.38
2019-03-11T06:11:19.466Z,100438.59
2019-03-11T06:13:47.570Z,100431.36
2019-03-11T06:16:16.179Z,100430.56
2019-03-11T06:18:47.734Z,100433.47
2019-03-11T06:21:35.233Z,100422.02
2019-03-11T06:24:03.162Z,100428.94
2019-03-11T06:26:30.795Z,100414.95
2019-03-11T06:28:58.437Z,100403.27
2019-03-11T06:31:26.713Z,100404.47
2019-03-11T06:33:55.027Z,100412.45
2019-03-11T06:36:22.749Z,100419.40
2019-03-11T06:38:50.445Z,100431.62
2019-03-11T06:41:17.967Z,100433.45
2019-03-11T06:43:45.541Z,100431.02
2019-03-11T06:46:12.739Z,100432.93
2019-03-11T06:48:41.184Z,100422.17
2019-03-11T06:51:08.725Z,100433.77
2019-03-11T06:53:35.965Z,100438.27
2019-03-11T06:56:03.779Z,100438.07
2019-03-11T06:58:31.196Z,100447.09
2019-03-11T07:00:59.164Z,100456.83
2019-03-11T07:03:26.943Z,100462.62
2019-03-11T07:05:54.588Z,100457.98
2019-03-11T07:08:22.114Z,100464.45
2019-03-11T07:10:49.793Z,100468.13
2019-03-11T07:13:17.505Z,100470.32
2019-03-11T07:15:45.477Z,100463.66
2019-03-11T07:18:13.048Z,100464.23
2019-03-11T07:20:40.325Z,100464.91
2019-03-11T07:23:07.819Z,100460.24
2019-03-11T07:25:35.500Z,100467.53
2019-03-11T07:28:03.075Z,100469.05
2019-03-11T07:30:33.774Z,100470.77
2019-03-11T07:33:02.128Z,100474.03
2019-03-11T07:35:29.814Z,100471.52
2019-03-11T07:37:57.460Z,100473.08
2019-03-11T07:40:30.140Z,100473.23
2019-03-11T07:42:55.451Z,100476.46
2019-03-11T07:45:23.122Z,100476.39
2019-03-11T07:47:50.432Z,100471.81
2019-03-11T07:50:18.064Z,100465.20
2019-03-11T07:52:46.203Z,100469.77
2019-03-11T07:55:13.863Z,100463.22
2019-03-11T07:57:41.457Z,100470.27
2019-03-11T08:00:09.798Z,100464.30
2019-03-11T08:02:37.928Z,100461.73
2019-03-11T08:05:06.946Z,100463.85
2019-03-11T08:07:34.690Z,100462.57
2019-03-11T08:10:02.212Z,100473.01
2019-03-11T08:12:29.616Z,100464.25
2019-03-11T08:14:57.155Z,100459.95
2019-03-11T08:17:24.547Z,100460.41
2019-03-11T08:19:52.719Z,100469.00
2019-03-11T08:22:20.118Z,100460.22
2019-03-11T08:24:47.545Z,100458.33
2019-03-11T08:27:15.086Z,100463.31
2019-03-11T08:29:42.605Z,100468.52
2019-03-11T08:32:09.861Z,100478.17
2019-03-11T08:34:38.352Z,100464.49
2019-03-11T08:37:06.939Z,100498.09
2019-03-11T08:39:35.001Z,100485.74
2019-03-11T08:42:02.729Z,100494.28
2019-03-11T08:44:30.104Z,100472.62
2019-03-11T08:46:57.526Z,100475.36
2019-03-11T08:49:25.151Z,100485.05
2019-03-11T08:51:52.648Z,100487.48
2019-03-11T08:54:20.234Z,100466.27
2019-03-11T08:56:47.574Z,100477.94
2019-03-11T08:59:16.692Z,100483.02
2019-03-11T09:01:44.537Z,100481.70
2019-03-11T09:04:12.214Z,100487.04
2019-03-11T09:06:39.913Z,100492.39
2019-03-11T09:09:11.330Z,100486.96
2019-03-11T09:11:39.677Z,100502.60
2019-03-11T09:14:07.403Z,100512.97
2019-03-11T09:16:35.526Z,100524.43
2019-03-11T09:19:03.200Z,100522.33
2019-03-11T09:21:30.863Z,100525.64
2019-03-11T09:23:58.896Z,100543.32
2019-03-11T09:26:26.485Z,100531.95
2019-03-11T09:28:54.403Z,100542.98
2019-03-11T09:31:22.121Z,100533.70
2019-03-11T09:33:50.022Z,100545.27
2019-03-11T09:36:17.674Z,100534.29
2019-03-11T09:38:45.361Z,100541.63
2019-03-11T09:41:12.961Z,100543.64
2019-03-11T09:43:40.497Z,100531.28
2019-03-11T09:46:07.936Z,100542.11
2019-03-11T09:48:35.205Z,100547.94
2019-03-11T09:51:02.968Z,100546.94
2019-03-11T09:53:31.137Z,100553.02
2019-03-11T09:55:58.719Z,100555.98
2019-03-11T09:58:26.687Z,100557.66
2019-03-11T10:00:54.651Z,100571.22
2019-03-11T10:03:21.852Z,100568.48
2019-03-11T10:05:49.286Z,100573.20
2019-03-11T10:08:16.919Z,100572.78
2019-03-11T10:10:44.707Z,100576.59
2019-03-11T10:13:12.113Z,100575.53
2019-03-11T10:15:39.768Z,100580.44
2019-03-11T10:18:07.150Z,100577.94
2019-03-11T10:20:34.784Z,100590.58
2019-03-11T10:23:02.066Z,100590.09
2019-03-11T10:25:30.231Z,100576.99
2019-03-11T10:27:58.148Z,100580.56
2019-03-11T10:30:28.564Z,100589.63
2019-03-11T10:32:57.156Z,100579.75
2019-03-11T10:35:31.894Z,100599.87
2019-03-11T10:37:54.315Z,100593.77
2019-03-11T10:40:21.723Z,100597.90
2019-03-11T10:42:49.116Z,100609.77
2019-03-11T10:45:16.951Z,100599.87
2019-03-11T10:47:44.759Z,100606.01
2019-03-11T10:50:12.475Z,100602.85
2019-03-11T10:52:40.017Z,100610.47
2019-03-11T10:55:10.059Z,100611.59
2019-03-11T10:57:38.047Z,100607.09
2019-03-11T11:00:10.679Z,100598.16
2019-03-11T11:02:38.590Z,100622.58
2019-03-11T11:05:06.786Z,100631.78
2019-03-11T11:07:34.390Z,100632.38
2019-03-11T11:10:02.155Z,100634.44
2019-03-11T11:12:30.032Z,100644.64
2019-03-11T11:14:57.217Z,100654.50
2019-03-11T11:17:24.705Z,100648.92
2019-03-11T11:20:02.878Z,100662.62
2019-03-11T11:22:22.339Z,100659.41
2019-03-11T11:24:49.609Z,100660.97
2019-03-11T11:27:17.303Z,100649.95
2019-03-11T11:29:45.398Z,100654.62
2019-03-11T11:32:13.478Z,100650.87
2019-03-11T11:34:41.330Z,100673.83
2019-03-11T11:37:09.062Z,100660.89
2019-03-11T11:39:36.431Z,100671.20
2019-03-11T11:42:04.642Z,100674.60
2019-03-11T11:44:31.937Z,100660.13
2019-03-11T11:46:59.696Z,100659.55
2019-03-11T11:49:27.418Z,100659.31
2019-03-11T11:51:55.497Z,100683.73
2019-03-11T11:54:23.208Z,100679.52
2019-03-11T11:56:51.427Z,100688.67
2019-03-11T11:59:19.349Z,100676.95
2019-03-11T12:02:03.287Z,100680.41
2019-03-11T12:04:24.452Z,100682.49
2019-03-11T12:06:51.874Z,100686.54
2019-03-11T12:09:19.649Z,100670.95
2019-03-11T12:11:47.871Z,100675.16
2019-03-11T12:14:15.710Z,100684.64
2019-03-11T12:16:43.268Z,100678.08
2019-03-11T12:19:11.117Z,100680.61
2019-03-11T12:21:38.961Z,100670.95
2019-03-11T12:24:07.679Z,100678.59
2019-03-11T12:26:35.757Z,100676.97
2019-03-11T12:29:03.972Z,100694.53
2019-03-11T12:31:31.771Z,100695.63
2019-03-11T12:33:59.681Z,100699.64
2019-03-11T12:36:27.416Z,100695.44
2019-03-11T12:38:54.710Z,100690.23
2019-03-11T12:41:22.104Z,100701.02
2019-03-11T12:43:50.189Z,100698.85
2019-03-11T12:46:20.562Z,100709.37
2019-03-11T12:48:49.049Z,100714.36
2019-03-11T12:51:17.235Z,100695.22
2019-03-11T12:53:44.439Z,100704.84
2019-03-11T12:56:12.626Z,100706.89
2019-03-11T12:58:41.818Z,100706.28
2019-03-11T13:01:09.658Z,100699.17
2019-03-11T13:03:37.526Z,100696.56
2019-03-11T13:06:05.054Z,100692.46
2019-03-11T13:08:32.460Z,100702.88
2019-03-11T13:11:00.291Z,100705.29
2019-03-11T13:13:28.137Z,100713.57
2019-03-11T13:15:55.612Z,100718.30
2019-03-11T13:18:35.303Z,100709.41
2019-03-11T13:21:20.365Z,100716.69
2019-03-11T13:23:47.914Z,100718.73
2019-03-11T13:26:15.249Z,100712.08
2019-03-11T13:28:43.173Z,100727.70
2019-03-11T13:31:10.747Z,100730.34
2019-03-11T13:33:38.744Z,100731.70
2019-03-11T13:36:07.604Z,100723.22
2019-03-11T13:38:36.626Z,100726.31
2019-03-11T13:41:04.665Z,100731.34
2019-03-11T13:43:32.142Z,100739.73
2019-03-11T13:45:59.975Z,100731.64
2019-03-11T13:48:27.676Z,100735.57
2019-03-11T13:50:55.440Z,100755.11
2019-03-11T13:53:23.186Z,100754.75
2019-03-11T13:55:50.747Z,100761.27
2019-03-11T13:58:18.050Z,100765.54
2019-03-11T14:00:56.065Z,100761.86
2019-03-11T14:03:14.757Z,100761.20
2019-03-11T14:05:42.191Z,100761.92
2019-03-11T14:08:10.322Z,100768.45
2019-03-11T14:10:37.944Z,100771.23
2019-03-11T14:13:05.798Z,100775.94
2019-03-11T14:15:33.466Z,100769.88
2019-03-11T14:18:01.459Z,100753.25
2019-03-11T14:20:31.663Z,100767.13
2019-03-11T14:22:59.558Z,100755.20
2019-03-11T14:25:26.847Z,100757.83
2019-03-11T14:27:54.668Z,100760.56
2019-03-11T14:30:22.261Z,100756.33
2019-03-11T14:32:50.270Z,100781.73
2019-03-11T14:35:18.139Z,100774.40
2019-03-11T14:37:45.909Z,100803.39
2019-03-11T14:40:13.434Z,100800.81
2019-03-11T14:42:41.562Z,100809.10
2019-03-11T14:45:12.038Z,100805.37
2019-03-11T14:47:39.436Z,100809.64
2019-03-11T14:50:07.966Z,100816.21
2019-03-11T14:52:35.750Z,100821.97
2019-03-11T14:55:03.725Z,100808.98
2019-03-11T14:57:31.371Z,100812.80
2019-03-11T14:59:59.706Z,100822.27
2019-03-11T15:02:27.468Z,100817.27
2019-03-11T15:04:54.884Z,100816.47
2019-03-11T15:07:22.303Z,100812.50
2019-03-11T15:09:51.629Z,100802.31
2019-03-11T15:12:19.687Z,100793.45
2019-03-11T15:14:47.516Z,100771.32
2019-03-11T15:17:15.238Z,100789.63
2019-03-11T15:19:43.229Z,100813.03
2019-03-11T15:22:10.481Z,100838.97
2019-03-11T15:24:38.431Z,100863.33
2019-03-11T15:27:06.434Z,100868.80
2019-03-11T15:29:33.867Z,100857.67
2019-03-11T15:32:02.363Z,100844.27
2019-03-11T15:34:30.161Z,100838.38
2019-03-11T15:36:57.891Z,100829.41
2019-03-11T15:39:25.688Z,100830.44
2019-03-11T15:41:53.367Z,100829.97
2019-03-11T15:44:20.932Z,100822.45
2019-03-11T15:46:48.653Z,100829.14
2019-03-11T15:49:16.362Z,100824.23
2019-03-11T15:51:43.995Z,100830.73
2019-03-11T15:54:11.693Z,100834.21
2019-03-11T15:56:39.464Z,100835.97
2019-03-11T15:59:07.294Z,100831.00
2019-03-11T16:01:35.401Z,100843.56
2019-03-11T16:04:02.975Z,100854.45
2019-03-11T16:06:31.377Z,100858.83
2019-03-11T16:08:59.338Z,100874.88
2019-03-11T16:11:27.416Z,100881.59
2019-03-11T16:13:55.151Z,100886.52
2019-03-11T16:16:23.060Z,100886.73
2019-03-11T16:18:50.844Z,100858.14
2019-03-11T16:21:18.598Z,100866.22
2019-03-11T16:23:46.300Z,100854.95
2019-03-11T16:26:14.406Z,100850.97
2019-03-11T16:28:48.108Z,100863.30
2019-03-11T16:31:11.586Z,100860.41
2019-03-11T16:33:39.315Z,100832.70
2019-03-11T16:36:06.742Z,100840.39
2019-03-11T16:38:34.434Z,100830.47
2019-03-11T16:41:02.215Z,100839.12
2019-03-11T16:43:30.073Z,100852.89
2019-03-11T16:45:58.077Z,100833.53
2019-03-11T16:48:26.013Z,100851.39
2019-03-11T16:50:53.254Z,100852.72
2019-03-11T16:53:21.109Z,100864.27
2019-03-11T16:55:49.942Z,100855.84
2019-03-11T16:58:17.811Z,100883.12
2019-03-11T17:00:45.638Z,100878.30
2019-03-11T17:03:13.659Z,100864.94
2019-03-11T17:05:41.383Z,100850.22
2019-03-11T17:08:09.202Z,100864.63
2019-03-11T17:10:36.704Z,100888.92
2019-03-11T17:13:04.280Z,100879.41
2019-03-11T17:15:32.509Z,100876.27
2019-03-11T17:18:00.588Z,100880.66
2019-03-11T17:20:29.078Z,100876.72
2019-03-11T17:22:56.845Z,100895.19
2019-03-11T17:25:24.864Z,100901.66
2019-03-11T17:27:52.702Z,100899.53
2019-03-11T17:30:20.262Z,100895.99
2019-03-11T17:32:47.757Z,100899.11
2019-03-11T17:35:15.639Z,100916.08
2019-03-11T17:37:43.461Z,100915.25
2019-03-11T17:40:13.987Z,100919.04
2019-03-11T17:42:41.494Z,100921.28
2019-03-11T17:45:09.657Z,100939.19
2019-03-11T17:47:37.724Z,100929.63
2019-03-11T17:50:07.363Z,100936.64
2019-03-11T17:52:34.991Z,100920.33
2019-03-11T17:55:03.457Z,100936.64
2019-03-11T17:57:31.157Z,100940.30
2019-03-11T17:59:59.066Z,100939.13
2019-03-11T18:02:26.894Z,100930.52
2019-03-11T18:04:54.943Z,100923.66
2019-03-11T18:07:22.182Z,100935.51
2019-03-11T18:09:49.618Z,100929.38
2019-03-11T18:12:17.496Z,100936.91
2019-03-11T18:14:45.286Z,100935.45
2019-03-11T18:17:12.709Z,100929.03
2019-03-11T18:19:40.267Z,100930.81
2019-03-11T18:22:07.661Z,100932.17
2019-03-11T18:24:35.704Z,100952.96
2019-03-11T18:27:03.480Z,100949.45
2019-03-11T18:29:31.919Z,100970.94
2019-03-11T18:32:02.231Z,100983.66
2019-03-11T18:34:29.321Z,100990.08
2019-03-11T18:36:57.619Z,100999.55
2019-03-11T18:39:25.276Z,101006.05
2019-03-11T18:41:53.896Z,100994.48
2019-03-11T18:44:21.452Z,101001.48
2019-03-11T18:46:49.085Z,101011.41
2019-03-11T18:49:17.109Z,101010.67
2019-03-11T18:51:44.614Z,101015.72
2019-03-11T18:54:12.699Z,101014.39
2019-03-11T18:56:40.944Z,101023.60
2019-03-11T18:59:08.382Z,101036.28
2019-03-11T19:01:36.121Z,101037.44
2019-03-11T19:04:04.395Z,101056.83
2019-03-11T19:06:32.230Z,101055.47
2019-03-11T19:08:59.739Z,101063.45
2019-03-11T19:11:27.559Z,101056.83
2019-03-11T19:13:55.416Z,101054.98
2019-03-11T19:16:23.505Z,101054.25
2019-03-11T19:18:50.746Z,101057.55
2019-03-11T19:21:18.673Z,101038.57
2019-03-11T19:23:46.502Z,101053.25
2019-03-11T19:26:14.285Z,101057.13
2019-03-11T19:28:42.398Z,101064.64
2019-03-11T19:31:10.068Z,101057.84
2019-03-11T19:33:38.270Z,101064.02
2019-03-11T19:36:05.854Z,101076.47
2019-03-11T19:38:34.025Z,101068.45
2019-03-11T19:41:01.719Z,101062.88
2019-03-11T19:43:29.574Z,101065.95
2019-03-11T19:45:57.609Z,101070.38
2019-03-11T19:48:25.002Z,101077.34
2019-03-11T19:52:00.133Z,101074.73
2019-03-11T19:54:27.485Z,101076.47
2019-03-11T19:56:55.267Z,101074.37
2019-03-11T19:59:23.797Z,101083.79
2019-03-11T20:01:52.069Z,101089.93
2019-03-11T20:04:19.458Z,101094.02
2019-03-11T20:06:47.287Z,101088.47
2019-03-11T20:09:45.504Z,101095.39
2019-03-11T20:12:13.331Z,101085.67
2019-03-11T20:14:41.012Z,101088.39
2019-03-11T20:17:08.623Z,101079.75
2019-03-11T20:19:36.732Z,101091.78
2019-03-11T20:22:05.189Z,101098.52
2019-03-11T20:24:32.727Z,101087.69
2019-03-11T20:27:00.931Z,101111.25
2019-03-11T20:29:28.415Z,101109.59
2019-03-11T20:31:56.609Z,101105.52
2019-03-11T20:34:24.669Z,101100.75
2019-03-11T20:36:52.392Z,101112.99
2019-03-11T20:39:20.785Z,101090.81
2019-03-11T20:41:48.357Z,101110.27
2019-03-11T20:44:16.346Z,101115.63
2019-03-11T20:46:44.444Z,101133.03
2019-03-11T20:49:12.655Z,101132.55
2019-03-11T20:51:40.674Z,101162.31
2019-03-11T20:54:08.512Z,101157.55
2019-03-11T20:56:36.392Z,101152.53
2019-03-11T20:59:03.817Z,101154.05
2019-03-11T21:01:32.351Z,101169.68
2019-03-11T21:03:59.758Z,101166.96
2019-03-11T21:06:27.431Z,101159.64
2019-03-11T21:08:55.533Z,101182.70
2019-03-11T21:11:22.995Z,101179.31
2019-03-11T21:13:51.030Z,101170.42
2019-03-11T21:16:18.930Z,101182.14
2019-03-11T21:18:46.209Z,101182.87
2019-03-11T21:21:14.351Z,101199.70
2019-03-11T21:23:41.892Z,101204.83
2019-03-11T21:26:10.074Z,101209.95
2019-03-11T21:28:37.835Z,101211.58
2019-03-11T21:31:05.503Z,101208.28
2019-03-11T21:33:33.214Z,101212.79
2019-03-11T21:36:01.280Z,101212.84
2019-03-11T21:38:28.819Z,101217.02
2019-03-11T21:40:57.147Z,101227.31
2019-03-11T21:43:24.587Z,101225.43
2019-03-11T21:45:52.682Z,101240.50
2019-03-11T21:48:20.298Z,101241.80
2019-03-11T21:50:48.550Z,101234.95
2019-03-11T21:53:16.464Z,101244.67
2019-03-11T21:55:43.984Z,101240.45
2019-03-11T21:58:13.415Z,101240.97
2019-03-11T22:00:41.309Z,101238.25
2019-03-11T22:03:09.104Z,101237.67
2019-03-11T22:05:36.701Z,101224.08
2019-03-11T22:08:04.104Z,101235.20
2019-03-11T22:10:31.767Z,101233.52
2019-03-11T22:12:59.540Z,101232.69
2019-03-11T22:15:27.234Z,101233.59
2019-03-11T22:17:54.942Z,101226.69
2019-03-11T22:20:23.059Z,101221.24
2019-03-11T22:22:50.363Z,101217.16
2019-03-11T22:25:17.943Z,101221.16
2019-03-11T22:27:46.042Z,101221.60
2019-03-11T22:30:15.944Z,101219.13
2019-03-11T22:32:44.090Z,101219.92
2019-03-11T22:35:13.013Z,101211.66
2019-03-11T22:37:41.116Z,101204.23
2019-03-11T22:40:09.321Z,101194.06
2019-03-11T22:42:37.100Z,101208.91
2019-03-11T22:45:07.096Z,101211.53
2019-03-11T22:47:35.170Z,101236.19
2019-03-11T22:50:03.532Z,101231.54
2019-03-11T22:52:32.122Z,101237.09
2019-03-11T22:54:59.392Z,101235.12
2019-03-11T22:57:29.800Z,101253.80
2019-03-11T22:59:57.348Z,101265.91
2019-03-11T23:02:25.162Z,101266.20
2019-03-11T23:04:52.837Z,101269.90
2019-03-11T23:07:20.210Z,101291.55
2019-03-11T23:09:47.859Z,101288.34
2019-03-11T23:12:15.334Z,101283.95
2019-03-11T23:14:43.186Z,101289.56
2019-03-11T23:17:10.713Z,101297.52
2019-03-11T23:19:38.559Z,101298.55
2019-03-11T23:22:06.913Z,101299.73
2019-03-11T23:24:34.832Z,101307.84
2019-03-11T23:27:02.398Z,101313.45
2019-03-11T23:29:30.409Z,101319.30
2019-03-11T23:31:58.110Z,101335.48
2019-03-11T23:34:25.636Z,101331.45
2019-03-11T23:36:53.157Z,101338.85
2019-03-11T23:39:21.052Z,101343.77
2019-03-11T23:41:48.468Z,101335.13
2019-03-11T23:44:15.605Z,101346.45
2019-03-11T23:46:43.190Z,101334.96
2019-03-11T23:49:10.372Z,101353.31
2019-03-11T23:51:37.998Z,101347.94
2019-03-11T23:54:05.790Z,101355.25
2019-03-11T23:56:33.245Z,101340.97
2019-03-11T23:59:00.512Z,101343.30
